Fishtail, Montana
Current Conditions -  °F | °C
As of 11:53 AM on Tuesday 21 Oct 2014 (Local Time) from KLVM Reporting Station
Scattered Clouds Scattered Clouds  
Wind Chill: 64°   Ceiling: Unl
Heat Index: 64°   Visibility: 10mi
Dew Point: 40°   Wind: 17mph
Humidity: 41%   Direction: 220°SW
Pressure: 29.73"   Gusts: 23mph
Location:  45.45°N, 109.51°W
Report Text: KLVM 211753Z AUTO 22015G20KT 10SM SCT070 18/04 A2973 RMK AO2 SLP032 T01780044 10194 20039 58010
Loading
Personal Weather Stations






























Interactive Weather Map
Tropical Storm Tracking
New forecast layout! Learn more

10-Day Weather Forecast

Advertisements
Track Severe Weather on mobile